createdAt,value
2023-04-26T00:02:36.000Z,98583.97
2023-04-26T00:07:36.000Z,98577.89
2023-04-26T00:12:36.000Z,98569.9
2023-04-26T00:17:36.000Z,98563.2
2023-04-26T00:22:36.000Z,98559.66
2023-04-26T00:27:36.000Z,98559.66
2023-04-26T00:32:36.000Z,98552.23
2023-04-26T00:37:35.000Z,98550.55
2023-04-26T00:42:35.000Z,98549.01
2023-04-26T00:47:35.000Z,98543.54
2023-04-26T00:52:35.000Z,98536.84
2023-04-26T00:57:35.000Z,98530.08
2023-04-26T01:02:36.000Z,98522.12
2023-04-26T01:07:35.000Z,98515.36
2023-04-26T01:12:36.000Z,98510.26
2023-04-26T01:17:36.000Z,98503.66
2023-04-26T01:22:36.000Z,98497.88
2023-04-26T01:27:36.000Z,98487.28
2023-04-26T01:32:35.000Z,98474.63
2023-04-26T01:37:36.000Z,98474.63
2023-04-26T01:42:35.000Z,98472.48
2023-04-26T01:47:35.000Z,98465.62
2023-04-26T01:52:35.000Z,98461.16
2023-04-26T01:57:36.000Z,98455.53
2023-04-26T02:02:36.000Z,98445.8
2023-04-26T02:07:36.000Z,98438.88
2023-04-26T02:12:35.000Z,98434.9
2023-04-26T02:17:35.000Z,98429.62
2023-04-26T02:22:36.000Z,98424.44
2023-04-26T02:27:36.000Z,98421.68
2023-04-26T02:32:36.000Z,98417.59
2023-04-26T02:37:35.000Z,98413.07
2023-04-26T02:42:35.000Z,98409.2
2023-04-26T02:47:36.000Z,98406
2023-04-26T02:52:36.000Z,98406
2023-04-26T02:57:35.000Z,98402.84
2023-04-26T03:02:36.000Z,98400.59
2023-04-26T03:07:36.000Z,98398.79
2023-04-26T03:12:36.000Z,98394.86
2023-04-26T03:17:36.000Z,98388.55
2023-04-26T03:22:36.000Z,98376.61
2023-04-26T03:27:35.000Z,98379.9
2023-04-26T03:32:35.000Z,98375.02
2023-04-26T03:37:35.000Z,98371.68
2023-04-26T03:42:35.000Z,98373.77
2023-04-26T03:47:36.000Z,98367.31
2023-04-26T03:52:35.000Z,98363.63
2023-04-26T03:57:35.000Z,98360.78
2023-04-26T04:02:36.000Z,98360.78
2023-04-26T04:07:36.000Z,98358.13
2023-04-26T04:12:35.000Z,98355.7
2023-04-26T04:17:36.000Z,98355.24
2023-04-26T04:22:35.000Z,98352.32
2023-04-26T04:27:35.000Z,98348.82
2023-04-26T04:32:35.000Z,98344.14
2023-04-26T04:37:36.000Z,98340.09
2023-04-26T04:42:36.000Z,98335.65
2023-04-26T04:47:36.000Z,98334.43
2023-04-26T04:52:35.000Z,98333.5
2023-04-26T04:57:36.000Z,98332.56
2023-04-26T05:02:36.000Z,98329.25
2023-04-26T05:07:38.000Z,98331.38
2023-04-26T05:12:35.000Z,98331.38
2023-04-26T05:17:35.000Z,98334.4
2023-04-26T05:22:35.000Z,98329.11
2023-04-26T05:27:35.000Z,98328.64
2023-04-26T05:32:36.000Z,98326.4
2023-04-26T05:37:36.000Z,98327.04
2023-04-26T05:42:36.000Z,98329.07
2023-04-26T05:47:36.000Z,98329
2023-04-26T05:52:36.000Z,98327.44
2023-04-26T05:57:35.000Z,98328.93
2023-04-26T06:02:36.000Z,98328.78
2023-04-26T06:07:36.000Z,98329.98
2023-04-26T06:12:35.000Z,98332.91
2023-04-26T06:17:36.000Z,98333.85
2023-04-26T06:22:36.000Z,98336.31
2023-04-26T06:27:36.000Z,98336.31
2023-04-26T06:32:35.000Z,98338.37
2023-04-26T06:37:36.000Z,98341
2023-04-26T06:42:35.000Z,98339.63
2023-04-26T06:47:36.000Z,98340.12
2023-04-26T06:52:35.000Z,98334.24
2023-04-26T06:57:36.000Z,98341.15
2023-04-26T07:02:36.000Z,98345.26
2023-04-26T07:07:36.000Z,98351.91
2023-04-26T07:12:36.000Z,98355.04
2023-04-26T07:17:35.000Z,98358.57
2023-04-26T07:22:35.000Z,98355.51
2023-04-26T07:27:36.000Z,98358.65
2023-04-26T07:32:35.000Z,98368.51
2023-04-26T07:37:35.000Z,98368.51
2023-04-26T07:42:36.000Z,98368.95
2023-04-26T07:47:35.000Z,98370.17
2023-04-26T07:52:36.000Z,98372.07
2023-04-26T07:57:36.000Z,98373.82
2023-04-26T08:02:54.000Z,98380.1
2023-04-26T08:07:35.000Z,98381.43
2023-04-26T08:12:35.000Z,98386.58
2023-04-26T08:17:35.000Z,98388.18
2023-04-26T08:22:35.000Z,98388.37
2023-04-26T08:27:35.000Z,98394.19
2023-04-26T08:32:35.000Z,98399.56
2023-04-26T08:37:38.000Z,98398.81
2023-04-26T08:42:35.000Z,98400.56
2023-04-26T08:47:35.000Z,98400.26
2023-04-26T08:52:36.000Z,98400.26
2023-04-26T08:57:35.000Z,98399.15
2023-04-26T09:02:36.000Z,98401.28
2023-04-26T09:07:35.000Z,98401.86
2023-04-26T09:12:35.000Z,98403.16
2023-04-26T09:17:35.000Z,98407.07
2023-04-26T09:22:35.000Z,98411.37
2023-04-26T09:27:35.000Z,98416.7
2023-04-26T09:32:35.000Z,98419.87
2023-04-26T09:37:35.000Z,98425.54
2023-04-26T09:42:35.000Z,98428.82
2023-04-26T09:47:36.000Z,98430.51
2023-04-26T09:52:35.000Z,98429.01
2023-04-26T09:57:35.000Z,98434.48
2023-04-26T10:02:36.000Z,98434.48
2023-04-26T10:07:36.000Z,98440.21
2023-04-26T10:12:36.000Z,98442.1
2023-04-26T10:17:36.000Z,98454.85
2023-04-26T10:22:36.000Z,98460.44
2023-04-26T10:27:36.000Z,98465.73
2023-04-26T10:32:36.000Z,98469.27
2023-04-26T10:37:36.000Z,98478.67
2023-04-26T10:42:37.000Z,98482.28
2023-04-26T10:47:36.000Z,98486.13
2023-04-26T10:52:36.000Z,98482.04
2023-04-26T10:57:35.000Z,98483.76
2023-04-26T11:02:35.000Z,98492.46
2023-04-26T11:07:36.000Z,98497.01
2023-04-26T11:12:36.000Z,98497.01
2023-04-26T11:17:36.000Z,98504.69
2023-04-26T11:22:35.000Z,98513.69
2023-04-26T11:27:35.000Z,98517.4
2023-04-26T11:32:36.000Z,98521.49
2023-04-26T11:37:36.000Z,98525.71
2023-04-26T11:42:35.000Z,98531.07
2023-04-26T11:47:36.000Z,98535.54
2023-04-26T11:52:35.000Z,98540.61
2023-04-26T11:57:36.000Z,98549.92
2023-04-26T12:02:35.000Z,98552.15
2023-04-26T12:07:36.000Z,98557.17
2023-04-26T12:12:35.000Z,98562.67
2023-04-26T12:17:36.000Z,98566.86
2023-04-26T12:22:36.000Z,98566.86
2023-04-26T12:27:36.000Z,98573.27
2023-04-26T12:32:36.000Z,98573.15
2023-04-26T12:37:35.000Z,98572.17
2023-04-26T12:42:35.000Z,98572.74
2023-04-26T12:47:37.000Z,98572.74
2023-04-26T12:52:36.000Z,98576.49
2023-04-26T12:57:36.000Z,98576.73
2023-04-26T13:02:35.000Z,98574.29
2023-04-26T13:07:36.000Z,98571.81
2023-04-26T13:12:35.000Z,98582.24
2023-04-26T13:17:35.000Z,98594
2023-04-26T13:22:36.000Z,98611.74
2023-04-26T13:27:39.000Z,98620.67
2023-04-26T13:32:35.000Z,98621.64
2023-04-26T13:37:35.000Z,98621.64
2023-04-26T13:42:35.000Z,98623.84
2023-04-26T13:47:35.000Z,98620.97
2023-04-26T13:52:35.000Z,98621.21
2023-04-26T13:57:36.000Z,98628.46
2023-04-26T14:02:36.000Z,98631.03
2023-04-26T14:07:35.000Z,98634.88
2023-04-26T14:12:36.000Z,98643.17
2023-04-26T14:17:35.000Z,98648.57
2023-04-26T14:22:35.000Z,98648.4
2023-04-26T14:27:36.000Z,98652.89
2023-04-26T14:32:35.000Z,98660.53
2023-04-26T14:37:35.000Z,98665.89
2023-04-26T14:42:36.000Z,98670.56
2023-04-26T14:47:37.000Z,98670.56
2023-04-26T14:52:40.000Z,98671.14
2023-04-26T14:57:36.000Z,98670.9
2023-04-26T15:02:36.000Z,98672.31
2023-04-26T15:07:43.000Z,98678.02
2023-04-26T15:12:35.000Z,98677.74
2023-04-26T15:17:36.000Z,98675.87
2023-04-26T15:22:35.000Z,98676.57
2023-04-26T15:27:35.000Z,98681.36
2023-04-26T15:32:36.000Z,98689.05
2023-04-26T15:37:35.000Z,98697.47
2023-04-26T15:42:36.000Z,98703.8
2023-04-26T15:47:36.000Z,98707.48
2023-04-26T15:52:36.000Z,98715.66
2023-04-26T15:57:35.000Z,98714.88
2023-04-26T16:02:36.000Z,98714.88
2023-04-26T16:07:35.000Z,98723.35
2023-04-26T16:12:36.000Z,98735.14
2023-04-26T16:17:36.000Z,98741.71
2023-04-26T16:22:36.000Z,98747.08
2023-04-26T16:27:36.000Z,98750.14
2023-04-26T16:32:35.000Z,98752.06
2023-04-26T16:37:35.000Z,98750.66
2023-04-26T16:42:36.000Z,98752
2023-04-26T16:47:35.000Z,98763.28
2023-04-26T16:52:35.000Z,98769.36
2023-04-26T16:57:36.000Z,98776.96
2023-04-26T17:02:35.000Z,98782.5
2023-04-26T17:07:35.000Z,98789.32
2023-04-26T17:12:35.000Z,98789.32
2023-04-26T17:17:36.000Z,98796.19
2023-04-26T17:22:35.000Z,98801.86
2023-04-26T17:27:35.000Z,98808.52
2023-04-26T17:32:36.000Z,98814.83
2023-04-26T17:37:35.000Z,98814.34
2023-04-26T17:42:36.000Z,98826.49
2023-04-26T17:47:36.000Z,98836.09
2023-04-26T17:52:36.000Z,98848.07
2023-04-26T17:57:38.000Z,98861.65
2023-04-26T18:02:35.000Z,98871.65
2023-04-26T18:07:35.000Z,98871.76
2023-04-26T18:12:36.000Z,98874.1
2023-04-26T18:17:36.000Z,98874.1
2023-04-26T18:22:35.000Z,98874.1
2023-04-26T18:27:35.000Z,98885.57
2023-04-26T18:32:36.000Z,98895.03
2023-04-26T18:37:35.000Z,98898.9
2023-04-26T18:42:35.000Z,98901.05
2023-04-26T18:47:35.000Z,98902.65
2023-04-26T18:52:35.000Z,98906.51
2023-04-26T18:57:36.000Z,98913.03
2023-04-26T19:02:36.000Z,98917.97
2023-04-26T19:07:35.000Z,98926.25
2023-04-26T19:12:36.000Z,98926.16
2023-04-26T19:17:36.000Z,98927.94
2023-04-26T19:22:35.000Z,98930.21
2023-04-26T19:27:35.000Z,98934.44
2023-04-26T19:32:36.000Z,98938.23
2023-04-26T19:37:36.000Z,98938.23
2023-04-26T19:42:35.000Z,98938.82
2023-04-26T19:47:41.000Z,98943.9
2023-04-26T19:52:35.000Z,98947.48
2023-04-26T19:57:35.000Z,98954.08
2023-04-26T20:02:35.000Z,98959.34
2023-04-26T20:07:36.000Z,98965.71
2023-04-26T20:12:35.000Z,98972.61
2023-04-26T20:17:36.000Z,98974.6
2023-04-26T20:22:35.000Z,98981.16
2023-04-26T20:27:35.000Z,98989.34
2023-04-26T20:32:35.000Z,98996.32
2023-04-26T20:37:36.000Z,98997.96
2023-04-26T20:42:35.000Z,98997.96
2023-04-26T20:47:36.000Z,99000.67
2023-04-26T20:52:35.000Z,99007.5
2023-04-26T20:57:35.000Z,99014.56
2023-04-26T21:02:36.000Z,99022.23
2023-04-26T21:07:35.000Z,99028.99
2023-04-26T21:12:35.000Z,99034.74
2023-04-26T21:17:36.000Z,99039.6
2023-04-26T21:22:35.000Z,99041.96
2023-04-26T21:27:35.000Z,99043.18
2023-04-26T21:32:36.000Z,99045.18
2023-04-26T21:37:35.000Z,99049.77
2023-04-26T21:42:36.000Z,99056.98
2023-04-26T21:47:36.000Z,99061.51
2023-04-26T21:52:36.000Z,99060.07
2023-04-26T21:57:36.000Z,99060.07
2023-04-26T22:02:35.000Z,99064.27
2023-04-26T22:07:36.000Z,99064.59
2023-04-26T22:12:35.000Z,99062.13
2023-04-26T22:17:35.000Z,99066.06
2023-04-26T22:22:36.000Z,99070.55
2023-04-26T22:27:36.000Z,99070.41
2023-04-26T22:32:35.000Z,99071.05
2023-04-26T22:37:36.000Z,99079.89
2023-04-26T22:42:37.000Z,99082.25
2023-04-26T22:47:35.000Z,99078.91
2023-04-26T22:52:42.000Z,99081.9
2023-04-26T22:57:36.000Z,99092.35
2023-04-26T23:02:37.000Z,99097.33
2023-04-26T23:07:36.000Z,99097.33
2023-04-26T23:12:36.000Z,99095.01
2023-04-26T23:17:36.000Z,99094.25
2023-04-26T23:22:36.000Z,99096.37
2023-04-26T23:27:36.000Z,99100.71
2023-04-26T23:32:36.000Z,99106.5
2023-04-26T23:37:35.000Z,99115.85
2023-04-26T23:42:35.000Z,99124.76
2023-04-26T23:47:36.000Z,99135.1
2023-04-26T23:52:36.000Z,99140.28
2023-04-26T23:57:36.000Z,99140.99
